createdAt,value
2023-03-04T00:00:51.813Z,53.47
2023-03-04T00:03:19.003Z,58.30
2023-03-04T00:05:47.448Z,52.20
2023-03-04T00:08:14.512Z,53.17
2023-03-04T00:10:41.990Z,55.97
2023-03-04T00:13:09.734Z,52.65
2023-03-04T00:15:36.471Z,46.47
2023-03-04T00:18:03.618Z,47.20
2023-03-04T00:20:31.097Z,51.25
2023-03-04T00:22:58.028Z,50.50
2023-03-04T00:25:26.800Z,57.20
2023-03-04T00:27:55.591Z,54.60
2023-03-04T00:30:22.888Z,59.13
2023-03-04T00:32:51.262Z,58.00
2023-03-04T00:35:18.765Z,53.70
2023-03-04T00:37:45.994Z,58.22
2023-03-04T00:40:14.430Z,58.45
2023-03-04T00:42:41.889Z,63.05
2023-03-04T00:45:11.087Z,55.72
2023-03-04T00:47:38.336Z,61.92
2023-03-04T00:50:06.176Z,56.45
2023-03-04T00:52:35.093Z,55.08
2023-03-04T00:55:02.538Z,59.53
2023-03-04T00:57:29.513Z,60.72
2023-03-04T00:59:56.448Z,54.28
2023-03-04T01:02:23.572Z,60.30
2023-03-04T01:04:51.060Z,57.42
2023-03-04T01:07:17.983Z,62.20
2023-03-04T01:09:44.840Z,61.42
2023-03-04T01:12:11.985Z,64.43
2023-03-04T01:14:39.761Z,64.97
2023-03-04T01:17:08.242Z,61.38
2023-03-04T01:19:35.032Z,61.28
2023-03-04T01:22:02.405Z,60.13
2023-03-04T01:24:30.031Z,60.85
2023-03-04T01:26:56.916Z,58.38
2023-03-04T01:29:24.306Z,64.53
2023-03-04T01:31:51.376Z,53.40
2023-03-04T01:34:18.532Z,60.08
2023-03-04T01:36:45.737Z,59.50
2023-03-04T01:39:12.742Z,59.08
2023-03-04T01:41:40.286Z,56.53
2023-03-04T01:44:09.732Z,65.28
2023-03-04T01:46:37.397Z,61.40
2023-03-04T01:49:06.559Z,53.95
2023-03-04T01:51:33.490Z,51.33
2023-03-04T01:54:00.247Z,55.05
2023-03-04T01:56:38.507Z,51.33
2023-03-04T01:59:26.436Z,53.45
2023-03-04T02:01:57.233Z,55.42
2023-03-04T02:04:31.917Z,58.22
2023-03-04T02:07:00.820Z,57.92
2023-03-04T02:09:29.593Z,49.92
2023-03-04T02:11:56.876Z,58.63
2023-03-04T02:14:24.367Z,52.20
2023-03-04T02:16:51.847Z,51.30
2023-03-04T02:19:47.186Z,52.80
2023-03-04T02:22:13.958Z,52.47
2023-03-04T02:24:48.057Z,53.58
2023-03-04T02:27:14.991Z,50.72
2023-03-04T02:29:41.824Z,59.90
2023-03-04T02:32:12.543Z,48.80
2023-03-04T02:34:47.276Z,51.45
2023-03-04T02:37:14.895Z,58.33
2023-03-04T02:39:47.639Z,53.80
2023-03-04T02:42:14.760Z,51.13
2023-03-04T02:44:46.558Z,53.10
2023-03-04T02:47:19.935Z,53.85
2023-03-04T02:49:47.088Z,52.10
2023-03-04T02:52:23.523Z,50.30
2023-03-04T02:54:50.330Z,52.92
2023-03-04T02:57:17.165Z,55.17
2023-03-04T02:59:44.694Z,49.60
2023-03-04T03:02:11.569Z,49.60
2023-03-04T03:04:39.726Z,46.30
2023-03-04T03:07:08.269Z,49.88
2023-03-04T03:09:35.027Z,50.75
2023-03-04T03:12:01.850Z,52.65
2023-03-04T03:14:28.629Z,48.70
2023-03-04T03:16:56.299Z,47.30
2023-03-04T03:19:23.078Z,46.00
2023-03-04T03:21:50.309Z,48.13
2023-03-04T03:24:17.135Z,52.35
2023-03-04T03:26:44.218Z,51.55
2023-03-04T03:29:10.979Z,50.70
2023-03-04T03:31:37.760Z,58.17
2023-03-04T03:34:04.598Z,46.53
2023-03-04T03:36:31.392Z,51.75
2023-03-04T03:38:58.252Z,42.75
2023-03-04T03:41:25.076Z,54.72
2023-03-04T03:43:52.744Z,47.28
2023-03-04T03:46:19.532Z,55.42
2023-03-04T03:48:47.497Z,49.45
2023-03-04T03:51:14.266Z,45.13
2023-03-04T03:53:41.282Z,48.28
2023-03-04T03:56:08.188Z,52.03
2023-03-04T03:58:36.185Z,52.20
2023-03-04T04:01:03.740Z,55.65
2023-03-04T04:03:30.996Z,52.50
2023-03-04T04:05:57.796Z,49.58
2023-03-04T04:08:24.560Z,50.05
2023-03-04T04:10:51.379Z,48.92
2023-03-04T04:13:18.602Z,49.05
2023-03-04T04:15:46.631Z,54.47
2023-03-04T04:18:14.434Z,50.13
2023-03-04T04:20:41.425Z,51.65
2023-03-04T04:23:08.253Z,47.95
2023-03-04T04:25:35.045Z,54.33
2023-03-04T04:28:02.247Z,53.08
2023-03-04T04:30:30.065Z,54.72
2023-03-04T04:32:57.019Z,48.70
2023-03-04T04:35:24.030Z,49.10
2023-03-04T04:37:51.045Z,48.70
2023-03-04T04:40:19.377Z,47.50
2023-03-04T04:42:46.162Z,56.03
2023-03-04T04:45:12.960Z,50.80
2023-03-04T04:47:39.872Z,51.45
2023-03-04T04:50:08.898Z,48.60
2023-03-04T04:52:36.261Z,54.97
2023-03-04T04:55:04.522Z,49.70
2023-03-04T04:57:31.337Z,46.08
2023-03-04T04:59:58.785Z,52.25
2023-03-04T05:02:25.580Z,55.00
2023-03-04T05:04:52.982Z,47.25
2023-03-04T05:07:19.961Z,55.30
2023-03-04T05:09:46.762Z,52.42
2023-03-04T05:12:13.752Z,57.28
2023-03-04T05:14:41.745Z,53.72
2023-03-04T05:17:08.502Z,54.80
2023-03-04T05:19:35.321Z,52.50
2023-03-04T05:22:02.350Z,53.58
2023-03-04T05:24:29.427Z,61.10
2023-03-04T05:26:56.347Z,51.78
2023-03-04T05:29:25.067Z,53.15
2023-03-04T05:31:51.847Z,53.55
2023-03-04T05:34:18.831Z,56.50
2023-03-04T05:36:46.048Z,49.22
2023-03-04T05:39:12.836Z,50.85
2023-03-04T05:41:39.612Z,51.50
2023-03-04T05:44:06.436Z,53.53
2023-03-04T05:46:33.966Z,49.10
2023-03-04T05:49:00.892Z,54.38
2023-03-04T05:51:27.721Z,55.72
2023-03-04T05:53:55.594Z,54.63
2023-03-04T05:56:23.209Z,52.88
2023-03-04T05:58:50.030Z,52.78
2023-03-04T06:01:18.248Z,51.85
2023-03-04T06:03:46.181Z,57.92
2023-03-04T06:06:13.840Z,57.90
2023-03-04T06:08:40.600Z,62.97
2023-03-04T06:11:09.929Z,53.30
2023-03-04T06:13:38.812Z,55.20
2023-03-04T06:16:07.879Z,58.47
2023-03-04T06:18:36.213Z,55.53
2023-03-04T06:21:04.619Z,58.30
2023-03-04T06:23:33.110Z,62.67
2023-03-04T06:26:02.409Z,63.15
2023-03-04T06:28:30.374Z,53.80
2023-03-04T06:30:58.314Z,56.42
2023-03-04T06:33:26.678Z,60.72
2023-03-04T06:35:59.169Z,54.42
2023-03-04T06:38:27.335Z,57.85
2023-03-04T06:40:57.282Z,64.35
2023-03-04T06:43:24.890Z,59.78
2023-03-04T06:45:52.579Z,59.20
2023-03-04T06:48:19.723Z,53.22
2023-03-04T06:50:46.553Z,54.83
2023-03-04T06:53:14.574Z,62.05
2023-03-04T06:55:41.491Z,53.67
2023-03-04T06:58:09.299Z,53.05
2023-03-04T07:00:36.239Z,51.72
2023-03-04T07:03:03.700Z,55.03
2023-03-04T07:05:31.185Z,57.35
2023-03-04T07:07:57.933Z,54.75
2023-03-04T07:10:26.484Z,49.42
2023-03-04T07:12:53.597Z,52.35
2023-03-04T07:15:21.150Z,47.63
2023-03-04T07:17:49.787Z,57.80
2023-03-04T07:20:17.175Z,47.20
2023-03-04T07:22:44.988Z,55.38
2023-03-04T07:25:12.473Z,50.88
2023-03-04T07:27:41.434Z,56.20
2023-03-04T07:30:10.384Z,52.30
2023-03-04T07:32:37.351Z,50.33
2023-03-04T07:35:05.985Z,49.22
2023-03-04T07:37:33.874Z,50.47
2023-03-04T07:40:01.131Z,51.58
2023-03-04T07:42:29.003Z,47.10
2023-03-04T07:44:56.329Z,55.90
2023-03-04T07:47:23.789Z,49.42
2023-03-04T07:49:50.753Z,51.70
2023-03-04T07:52:17.610Z,48.38
2023-03-04T07:54:44.409Z,40.55
2023-03-04T07:57:11.180Z,36.78
2023-03-04T07:59:37.943Z,35.25
2023-03-04T08:02:06.419Z,30.67
2023-03-04T08:04:34.066Z,33.08
2023-03-04T08:07:00.809Z,31.35
2023-03-04T08:09:28.132Z,31.17
2023-03-04T08:11:54.937Z,36.92
2023-03-04T08:14:22.634Z,29.98
2023-03-04T08:16:49.433Z,29.05
2023-03-04T08:19:17.120Z,30.45
2023-03-04T08:21:43.946Z,30.85
2023-03-04T08:24:12.662Z,29.88
2023-03-04T08:26:46.576Z,30.88
2023-03-04T08:29:18.187Z,29.85
2023-03-04T08:31:48.812Z,33.55
2023-03-04T08:34:16.720Z,30.08
2023-03-04T08:36:43.894Z,34.50
2023-03-04T08:39:15.154Z,29.02
2023-03-04T08:41:43.440Z,33.50
2023-03-04T08:44:10.887Z,30.15
2023-03-04T08:46:39.929Z,28.15
2023-03-04T08:49:07.853Z,28.73
2023-03-04T08:51:35.873Z,31.10
2023-03-04T08:54:06.464Z,30.25
2023-03-04T08:56:33.527Z,32.15
2023-03-04T08:59:00.473Z,29.90
2023-03-04T09:01:28.464Z,28.60
2023-03-04T09:03:56.351Z,28.55
2023-03-04T09:06:23.814Z,29.27
2023-03-04T09:08:51.067Z,28.80
2023-03-04T09:11:18.122Z,37.55
2023-03-04T09:13:45.114Z,30.48
2023-03-04T09:16:14.950Z,23.15
2023-03-04T09:18:43.917Z,25.83
2023-03-04T09:21:11.754Z,26.00
2023-03-04T09:23:41.097Z,26.55
2023-03-04T09:26:23.628Z,26.67
2023-03-04T09:28:59.774Z,25.50
2023-03-04T09:31:28.579Z,33.42
2023-03-04T09:33:59.090Z,32.67
2023-03-04T09:36:26.297Z,31.70
2023-03-04T09:38:54.115Z,41.42
2023-03-04T09:41:39.770Z,36.13
2023-03-04T09:44:23.989Z,27.02
2023-03-04T09:46:53.075Z,28.45
2023-03-04T09:49:22.830Z,29.45
2023-03-04T09:52:14.468Z,30.88
2023-03-04T09:54:58.328Z,25.90
2023-03-04T09:57:54.367Z,25.10
2023-03-04T10:00:46.049Z,30.23
2023-03-04T10:03:19.460Z,23.58
2023-03-04T10:06:01.822Z,31.85
2023-03-04T10:08:57.448Z,18.13
2023-03-04T10:11:46.722Z,26.17
2023-03-04T10:15:06.537Z,24.33
2023-03-04T10:17:41.011Z,28.83
2023-03-04T10:20:36.543Z,26.80
2023-03-04T10:23:14.463Z,24.10
2023-03-04T10:25:46.691Z,27.17
2023-03-04T10:28:19.081Z,26.67
2023-03-04T10:30:59.365Z,17.20
2023-03-04T10:33:37.495Z,35.60
2023-03-04T10:36:29.199Z,26.90
2023-03-04T10:39:13.099Z,25.83
2023-03-04T10:41:46.972Z,28.90
2023-03-04T10:44:18.123Z,24.38
2023-03-04T10:46:48.979Z,27.42
2023-03-04T10:49:20.908Z,25.73
2023-03-04T10:52:21.658Z,28.48
2023-03-04T10:54:52.934Z,31.27
2023-03-04T10:57:25.764Z,31.40
2023-03-04T10:59:59.171Z,32.03
2023-03-04T11:02:32.253Z,33.80
2023-03-04T11:05:26.830Z,44.97
2023-03-04T11:07:57.666Z,39.30
2023-03-04T11:10:36.585Z,34.22
2023-03-04T11:13:23.082Z,28.63
2023-03-04T11:16:05.049Z,26.92
2023-03-04T11:18:44.022Z,31.10
2023-03-04T11:21:40.811Z,29.50
2023-03-04T11:24:29.184Z,33.53
2023-03-04T11:27:02.708Z,32.80
2023-03-04T11:30:11.419Z,34.08
2023-03-04T11:32:44.289Z,32.17
2023-03-04T11:38:15.154Z,35.97
2023-03-04T11:40:51.287Z,26.58
2023-03-04T11:43:41.342Z,25.98
2023-03-04T11:46:42.700Z,31.48
2023-03-04T11:49:52.798Z,31.35
2023-03-04T11:52:28.339Z,28.33
2023-03-04T11:55:08.254Z,27.33
2023-03-04T11:58:09.765Z,30.30
2023-03-04T12:00:58.656Z,25.83
2023-03-04T12:03:53.672Z,29.33
2023-03-04T12:06:51.263Z,29.00
2023-03-04T12:09:37.292Z,29.58
2023-03-04T12:12:53.664Z,30.73
2023-03-04T12:15:53.235Z,36.88
2023-03-04T12:18:43.117Z,32.55
2023-03-04T12:21:55.998Z,29.73
2023-03-04T12:24:39.142Z,30.50
2023-03-04T12:27:25.668Z,53.15
2023-03-04T12:30:26.694Z,33.58
2023-03-04T12:33:25.668Z,27.08
2023-03-04T12:36:03.880Z,34.08
2023-03-04T12:38:59.144Z,30.13
2023-03-04T12:41:49.952Z,32.47
2023-03-04T12:44:21.605Z,30.33
2023-03-04T12:47:16.343Z,29.58
2023-03-04T12:50:14.776Z,31.02
2023-03-04T12:53:05.296Z,35.22
2023-03-04T12:55:45.432Z,35.60
2023-03-04T12:58:23.486Z,31.55
2023-03-04T13:00:55.822Z,34.42
2023-03-04T13:03:28.375Z,24.92
2023-03-04T13:06:18.968Z,33.70
2023-03-04T13:09:29.195Z,29.95
2023-03-04T13:12:12.510Z,30.25
2023-03-04T13:14:39.352Z,31.92
2023-03-04T13:17:43.598Z,27.75
2023-03-04T13:20:34.542Z,26.95
2023-03-04T13:23:27.645Z,33.28
2023-03-04T13:25:58.051Z,30.42
2023-03-04T13:28:31.245Z,32.40
2023-03-04T13:30:59.410Z,33.33
2023-03-04T13:33:26.157Z,31.60
2023-03-04T13:36:30.341Z,30.63
2023-03-04T13:39:18.831Z,22.65
2023-03-04T13:41:52.065Z,28.27
2023-03-04T13:44:44.936Z,29.60
2023-03-04T13:47:18.929Z,32.80
2023-03-04T13:49:45.767Z,35.22
2023-03-04T13:52:48.593Z,27.65
2023-03-04T13:55:37.911Z,30.90
2023-03-04T13:58:26.926Z,29.83
2023-03-04T14:00:55.891Z,37.05
2023-03-04T14:03:29.450Z,39.03
2023-03-04T14:06:18.538Z,51.85
2023-03-04T14:08:49.549Z,44.00
2023-03-04T14:11:35.037Z,32.38
2023-03-04T14:14:06.908Z,42.80
2023-03-04T14:16:45.161Z,47.13
2023-03-04T14:19:38.519Z,39.55
2023-03-04T14:22:25.045Z,36.47
2023-03-04T14:25:23.936Z,37.70
2023-03-04T14:28:04.657Z,34.42
2023-03-04T14:30:42.148Z,28.60
2023-03-04T14:33:19.457Z,32.47
2023-03-04T14:35:50.786Z,29.77
2023-03-04T14:38:30.757Z,30.50
2023-03-04T14:41:18.733Z,26.42
2023-03-04T14:44:24.427Z,27.30
2023-03-04T14:47:08.079Z,35.50
2023-03-04T14:49:39.111Z,32.13
2023-03-04T14:52:07.175Z,30.48
2023-03-04T14:54:42.039Z,30.75
2023-03-04T14:57:36.658Z,31.33
